createdAt,value
2019-05-05T00:01:25.403Z,9.75
2019-05-05T00:04:14.898Z,8.73
2019-05-05T00:06:45.746Z,9.60
2019-05-05T00:09:14.697Z,13.72
2019-05-05T00:11:58.174Z,11.97
2019-05-05T00:14:44.260Z,9.95
2019-05-05T00:17:20.300Z,11.28
2019-05-05T00:19:49.664Z,15.03
2019-05-05T00:22:18.522Z,12.58
2019-05-05T00:24:46.956Z,11.48
2019-05-05T00:27:16.340Z,10.50
2019-05-05T00:29:45.753Z,14.95
2019-05-05T00:32:15.290Z,14.50
2019-05-05T00:34:44.525Z,16.70
2019-05-05T00:37:14.968Z,24.32
2019-05-05T00:39:45.161Z,20.20
2019-05-05T00:42:15.550Z,18.67
2019-05-05T00:44:44.790Z,21.20
2019-05-05T00:47:15.450Z,25.30
2019-05-05T00:49:49.099Z,25.92
2019-05-05T00:52:16.536Z,31.45
2019-05-05T00:54:46.315Z,19.12
2019-05-05T00:57:15.049Z,19.92
2019-05-05T00:59:45.203Z,28.00
2019-05-05T01:02:21.336Z,26.42
2019-05-05T01:04:55.081Z,29.30
2019-05-05T01:07:24.832Z,24.82
2019-05-05T01:09:54.261Z,27.70
2019-05-05T01:12:24.446Z,26.33
2019-05-05T01:14:55.205Z,29.00
2019-05-05T01:17:25.307Z,19.90
2019-05-05T01:20:03.360Z,18.23
2019-05-05T01:22:25.140Z,22.90
2019-05-05T01:24:55.439Z,21.62
2019-05-05T01:27:25.383Z,21.60
2019-05-05T01:29:55.200Z,24.02
2019-05-05T01:32:29.509Z,21.57
2019-05-05T01:34:58.209Z,20.80
2019-05-05T01:37:34.821Z,20.10
2019-05-05T01:40:24.768Z,18.80
2019-05-05T01:42:54.781Z,17.90
2019-05-05T01:45:24.200Z,23.52
2019-05-05T01:47:54.569Z,20.17
2019-05-05T01:50:24.809Z,16.93
2019-05-05T01:52:55.429Z,16.67
2019-05-05T01:55:25.260Z,16.40
2019-05-05T01:57:54.483Z,15.35
2019-05-05T02:00:25.241Z,17.57
2019-05-05T02:02:55.369Z,15.70
2019-05-05T02:05:25.162Z,12.78
2019-05-05T02:07:55.296Z,19.25
2019-05-05T02:10:25.419Z,11.55
2019-05-05T02:12:55.207Z,15.68
2019-05-05T02:15:25.023Z,17.02
2019-05-05T02:17:55.650Z,12.70
2019-05-05T02:20:45.747Z,16.05
2019-05-05T02:23:15.907Z,13.50
2019-05-05T02:25:44.830Z,18.45
2019-05-05T02:28:14.989Z,14.58
2019-05-05T02:33:49.231Z,18.05
2019-05-05T02:36:17.733Z,14.98
2019-05-05T02:38:46.553Z,15.85
2019-05-05T02:41:17.307Z,14.85
2019-05-05T02:43:49.360Z,15.32
2019-05-05T02:46:38.059Z,17.30
2019-05-05T02:49:07.866Z,15.03
2019-05-05T02:51:37.341Z,16.15
2019-05-05T02:54:05.915Z,17.65
2019-05-05T02:56:43.601Z,17.30
2019-05-05T02:59:16.312Z,17.65
2019-05-05T03:01:46.760Z,16.87
2019-05-05T03:04:15.681Z,16.10
2019-05-05T03:06:48.448Z,15.65
2019-05-05T03:09:18.963Z,21.50
2019-05-05T03:11:49.739Z,14.33
2019-05-05T03:14:23.551Z,14.83
2019-05-05T03:16:54.186Z,19.30
2019-05-05T03:19:24.784Z,15.35
2019-05-05T03:21:54.551Z,13.22
2019-05-05T03:24:23.647Z,14.78
2019-05-05T03:26:53.723Z,15.58
2019-05-05T03:29:25.644Z,16.87
2019-05-05T03:31:56.359Z,15.70
2019-05-05T03:34:24.908Z,19.10
2019-05-05T03:36:53.800Z,20.40
2019-05-05T03:39:25.980Z,21.17
2019-05-05T03:41:59.395Z,18.10
2019-05-05T03:44:30.900Z,16.27
2019-05-05T03:46:59.511Z,21.00
2019-05-05T03:49:28.412Z,16.87
2019-05-05T03:51:57.724Z,21.10
2019-05-05T03:54:27.108Z,18.07
2019-05-05T03:57:08.010Z,15.72
2019-05-05T03:59:38.852Z,18.65
2019-05-05T04:02:15.559Z,19.37
2019-05-05T04:04:46.846Z,12.50
2019-05-05T04:07:15.945Z,18.15
2019-05-05T04:09:44.459Z,15.08
2019-05-05T04:12:14.266Z,14.80
2019-05-05T04:14:44.991Z,14.65
2019-05-05T04:17:33.525Z,15.18
2019-05-05T04:20:19.104Z,12.78
2019-05-05T04:22:48.738Z,15.10
2019-05-05T04:25:18.367Z,15.80
2019-05-05T04:27:46.795Z,13.78
2019-05-05T04:30:15.495Z,13.93
2019-05-05T04:32:44.257Z,11.05
2019-05-05T04:35:14.115Z,9.43
2019-05-05T04:37:43.776Z,10.43
2019-05-05T04:40:14.793Z,13.55
2019-05-05T04:42:44.065Z,10.23
2019-05-05T04:45:14.779Z,11.80
2019-05-05T04:47:57.415Z,8.05
2019-05-05T04:50:45.840Z,10.70
2019-05-05T04:53:15.909Z,10.25
2019-05-05T04:55:44.362Z,10.10
2019-05-05T04:58:13.682Z,7.70
2019-05-05T05:00:44.135Z,10.08
2019-05-05T05:03:31.142Z,11.18
2019-05-05T05:06:07.567Z,13.30
2019-05-05T05:08:36.908Z,10.18
2019-05-05T05:11:05.340Z,7.62
2019-05-05T05:13:34.734Z,11.63
2019-05-05T05:16:04.552Z,10.30
2019-05-05T05:18:34.365Z,9.78
2019-05-05T05:21:04.413Z,8.73
2019-05-05T05:23:34.107Z,9.70
2019-05-05T05:26:04.878Z,7.17
2019-05-05T05:28:34.196Z,8.10
2019-05-05T05:31:04.051Z,6.53
2019-05-05T05:33:34.406Z,8.10
2019-05-05T05:36:03.993Z,9.78
2019-05-05T05:38:34.644Z,10.05
2019-05-05T05:41:13.664Z,10.98
2019-05-05T05:43:54.137Z,8.95
2019-05-05T05:46:27.054Z,7.87
2019-05-05T05:49:06.255Z,7.37
2019-05-05T05:51:37.503Z,6.97
2019-05-05T05:54:06.011Z,8.65
2019-05-05T05:56:34.455Z,5.28
2019-05-05T05:59:03.658Z,9.43
2019-05-05T06:01:34.419Z,7.03
2019-05-05T06:04:04.160Z,9.15
2019-05-05T06:06:34.618Z,6.50
2019-05-05T06:09:04.299Z,8.08
2019-05-05T06:11:34.513Z,8.68
2019-05-05T06:14:04.004Z,7.58
2019-05-05T06:16:34.202Z,8.88
2019-05-05T06:19:03.623Z,8.85
2019-05-05T06:21:33.741Z,6.62
2019-05-05T06:24:04.452Z,6.40
2019-05-05T06:26:34.352Z,6.22
2019-05-05T06:29:04.330Z,7.33
2019-05-05T06:31:35.006Z,6.45
2019-05-05T06:34:03.803Z,7.37
2019-05-05T06:36:34.064Z,6.67
2019-05-05T06:39:04.667Z,6.40
2019-05-05T06:41:35.725Z,6.87
2019-05-05T06:44:05.858Z,4.95
2019-05-05T06:46:53.727Z,7.37
2019-05-05T06:49:23.798Z,6.03
2019-05-05T06:51:54.519Z,7.92
2019-05-05T06:54:24.125Z,6.10
2019-05-05T06:56:53.888Z,6.90
2019-05-05T06:59:24.344Z,7.80
2019-05-05T07:01:53.585Z,6.67
2019-05-05T07:04:24.392Z,7.42
2019-05-05T07:06:56.778Z,5.67
2019-05-05T07:09:24.455Z,7.28
2019-05-05T07:11:54.095Z,4.97
2019-05-05T07:14:23.641Z,5.83
2019-05-05T07:16:54.353Z,7.37
2019-05-05T07:19:23.918Z,7.53
2019-05-05T07:21:53.831Z,10.55
2019-05-05T07:24:23.877Z,8.05
2019-05-05T07:26:54.101Z,7.95
2019-05-05T07:29:23.956Z,9.20
2019-05-05T07:31:54.597Z,9.03
2019-05-05T07:34:24.274Z,8.50
2019-05-05T07:36:54.798Z,6.40
2019-05-05T07:39:23.944Z,5.90
2019-05-05T07:41:54.155Z,8.38
2019-05-05T07:44:29.423Z,9.08
2019-05-05T07:46:54.452Z,5.83
2019-05-05T07:49:24.343Z,10.58
2019-05-05T07:51:54.705Z,6.90
2019-05-05T07:54:23.647Z,8.13
2019-05-05T07:56:53.833Z,6.90
2019-05-05T07:59:23.797Z,9.95
2019-05-05T08:01:54.613Z,7.47
2019-05-05T08:04:24.259Z,8.25
2019-05-05T08:06:54.046Z,6.53
2019-05-05T08:09:24.849Z,9.93
2019-05-05T08:11:54.301Z,7.20
2019-05-05T08:14:24.693Z,7.95
2019-05-05T08:17:10.293Z,6.20
2019-05-05T08:19:40.363Z,7.15
2019-05-05T08:22:09.124Z,7.53
2019-05-05T08:24:55.700Z,7.85
2019-05-05T08:27:34.341Z,6.42
2019-05-05T08:30:05.306Z,8.58
2019-05-05T08:32:35.791Z,7.33
2019-05-05T08:35:08.252Z,6.37
2019-05-05T08:37:36.837Z,7.60
2019-05-05T08:40:09.539Z,7.35
2019-05-05T08:42:37.971Z,5.65
2019-05-05T08:45:07.363Z,5.53
2019-05-05T08:47:36.140Z,5.72
2019-05-05T08:50:06.711Z,6.92
2019-05-05T08:52:35.768Z,6.30
2019-05-05T08:55:05.452Z,6.40
2019-05-05T08:57:35.867Z,4.95
2019-05-05T09:00:07.098Z,6.58
2019-05-05T09:02:36.773Z,5.65
2019-05-05T09:05:06.372Z,4.05
2019-05-05T09:07:34.792Z,6.55
2019-05-05T09:10:05.571Z,4.67
2019-05-05T09:12:34.016Z,7.92
2019-05-05T09:15:04.425Z,5.97
2019-05-05T09:17:33.737Z,5.33
2019-05-05T09:20:04.359Z,5.22
2019-05-05T09:22:32.382Z,6.35
2019-05-05T09:25:08.533Z,5.10
2019-05-05T09:27:41.555Z,3.15
2019-05-05T09:30:14.244Z,4.87
2019-05-05T09:32:43.924Z,4.03
2019-05-05T09:35:13.911Z,4.95
2019-05-05T09:37:44.321Z,4.37
2019-05-05T09:40:15.789Z,3.65
2019-05-05T09:42:44.575Z,5.75
2019-05-05T09:45:13.983Z,6.78
2019-05-05T09:47:44.855Z,4.45
2019-05-05T09:50:14.327Z,5.30
2019-05-05T09:52:44.401Z,5.40
2019-05-05T09:55:13.832Z,3.60
2019-05-05T09:57:43.787Z,4.35
2019-05-05T10:00:14.129Z,4.72
2019-05-05T10:02:44.171Z,5.55
2019-05-05T10:05:14.482Z,7.90
2019-05-05T10:07:44.076Z,4.40
2019-05-05T10:10:14.483Z,5.03
2019-05-05T10:12:44.556Z,3.45
2019-05-05T10:15:14.061Z,4.45
2019-05-05T10:17:43.016Z,6.92
2019-05-05T10:20:11.873Z,4.17
2019-05-05T10:22:40.313Z,5.03
2019-05-05T10:25:10.740Z,5.70
2019-05-05T10:27:44.875Z,3.62
2019-05-05T10:30:10.667Z,4.30
2019-05-05T10:32:39.204Z,6.53
2019-05-05T10:35:08.344Z,7.17
2019-05-05T10:37:37.691Z,4.00
2019-05-05T10:40:07.876Z,5.08
2019-05-05T10:42:54.005Z,3.95
2019-05-05T10:45:25.007Z,3.15
2019-05-05T10:47:53.883Z,7.22
2019-05-05T10:50:24.460Z,3.45
2019-05-05T10:52:53.653Z,3.30
2019-05-05T10:55:23.861Z,4.42
2019-05-05T10:57:54.238Z,4.40
2019-05-05T11:00:44.396Z,6.78
2019-05-05T11:03:14.809Z,3.67
2019-05-05T11:05:45.196Z,4.10
2019-05-05T11:08:14.394Z,5.28
2019-05-05T11:10:45.021Z,6.03
2019-05-05T11:13:17.236Z,5.05
2019-05-05T11:15:45.679Z,3.45
2019-05-05T11:18:14.950Z,3.55
2019-05-05T11:20:45.262Z,4.42
2019-05-05T11:23:14.862Z,2.83
2019-05-05T11:25:44.365Z,4.97
2019-05-05T11:28:13.368Z,4.53
2019-05-05T11:30:46.208Z,2.58
2019-05-05T11:33:28.499Z,5.22
2019-05-05T11:36:04.472Z,3.98
2019-05-05T11:38:34.062Z,3.40
2019-05-05T11:41:04.939Z,2.50
2019-05-05T11:43:33.901Z,4.33
2019-05-05T11:46:05.517Z,3.92
2019-05-05T11:48:34.515Z,5.70
2019-05-05T11:51:04.545Z,4.83
2019-05-05T11:53:33.967Z,4.15
2019-05-05T11:56:04.775Z,6.28
2019-05-05T11:58:34.069Z,2.98
2019-05-05T12:01:03.726Z,4.12
2019-05-05T12:03:34.035Z,3.08
2019-05-05T12:06:04.033Z,2.50
2019-05-05T12:08:34.567Z,4.12
2019-05-05T12:11:04.694Z,3.62
2019-05-05T12:13:33.261Z,4.08
2019-05-05T12:16:04.612Z,6.35
2019-05-05T12:18:34.438Z,3.77
2019-05-05T12:21:05.005Z,3.40
2019-05-05T12:23:34.043Z,3.37
2019-05-05T12:26:13.768Z,4.00
2019-05-05T12:28:44.083Z,3.95
2019-05-05T12:31:26.752Z,5.08
2019-05-05T12:33:55.445Z,5.62
2019-05-05T12:36:24.031Z,5.00
2019-05-05T12:38:54.675Z,4.12
2019-05-05T12:41:23.821Z,4.15
2019-05-05T12:43:54.828Z,3.98
2019-05-05T12:46:37.064Z,4.00
2019-05-05T12:49:07.196Z,2.77
2019-05-05T12:51:35.620Z,3.42
2019-05-05T12:54:05.131Z,2.67
2019-05-05T12:56:34.123Z,3.62
2019-05-05T12:59:04.415Z,5.12
2019-05-05T13:01:34.776Z,2.00
2019-05-05T13:04:04.338Z,2.65
2019-05-05T13:06:34.570Z,2.17
2019-05-05T13:09:06.755Z,4.65
2019-05-05T13:11:36.287Z,3.40
2019-05-05T13:14:05.286Z,3.20
2019-05-05T13:16:33.989Z,4.42
2019-05-05T13:19:04.511Z,3.67
2019-05-05T13:21:40.971Z,4.95
2019-05-05T13:24:13.621Z,3.47
2019-05-05T13:26:49.632Z,2.62
2019-05-05T13:29:18.060Z,2.95
2019-05-05T13:31:46.789Z,4.45
2019-05-05T13:34:15.225Z,3.50
2019-05-05T13:36:44.245Z,2.50
2019-05-05T13:39:14.429Z,4.20
2019-05-05T13:41:44.892Z,2.62
2019-05-05T13:44:14.941Z,2.45
2019-05-05T13:46:44.291Z,2.22
2019-05-05T13:49:29.675Z,3.05
2019-05-05T13:52:00.060Z,2.83
2019-05-05T13:54:28.491Z,2.90
2019-05-05T13:56:57.963Z,4.40
2019-05-05T13:59:26.647Z,3.40
2019-05-05T14:01:56.239Z,3.87
2019-05-05T14:04:24.683Z,3.98
2019-05-05T14:06:54.402Z,2.58
2019-05-05T14:09:23.928Z,3.85
2019-05-05T14:11:53.649Z,4.55
2019-05-05T14:14:24.124Z,3.87
2019-05-05T14:16:53.779Z,2.65
2019-05-05T14:19:24.815Z,6.08
2019-05-05T14:21:54.408Z,5.35
2019-05-05T14:24:27.757Z,3.15
2019-05-05T14:26:56.191Z,3.35
2019-05-05T14:29:35.275Z,3.70
2019-05-05T14:32:03.971Z,4.80
2019-05-05T14:34:34.383Z,5.92
2019-05-05T14:37:24.701Z,5.67
2019-05-05T14:39:54.566Z,3.12
2019-05-05T14:42:23.900Z,6.67
2019-05-05T14:44:54.500Z,4.15
2019-05-05T14:47:24.478Z,6.17
2019-05-05T14:49:53.998Z,8.93
2019-05-05T14:52:24.798Z,9.15
2019-05-05T14:54:54.324Z,10.03
2019-05-05T14:57:24.833Z,9.78
2019-05-05T14:59:54.048Z,8.23
2019-05-05T15:02:24.401Z,7.72
2019-05-05T15:04:55.424Z,9.73
2019-05-05T15:07:26.471Z,9.98
2019-05-05T15:10:14.448Z,9.00
2019-05-05T15:12:44.863Z,14.40
2019-05-05T15:15:14.335Z,12.45
2019-05-05T15:17:43.215Z,12.35
2019-05-05T15:20:13.946Z,15.83
2019-05-05T15:22:45.751Z,14.10
2019-05-05T15:25:14.603Z,12.30
2019-05-05T15:27:45.019Z,10.60
2019-05-05T15:30:13.629Z,12.03
2019-05-05T15:32:43.824Z,13.85
2019-05-05T15:35:14.308Z,10.23
2019-05-05T15:37:43.642Z,10.90
2019-05-05T15:40:14.325Z,13.10
2019-05-05T15:42:43.981Z,8.38
2019-05-05T15:45:12.786Z,9.15
2019-05-05T15:47:43.616Z,10.58
2019-05-05T15:50:13.851Z,7.97
2019-05-05T15:52:44.014Z,12.55
2019-05-05T15:55:14.066Z,10.43
2019-05-05T15:57:44.270Z,12.35
2019-05-05T16:00:14.071Z,13.85
2019-05-05T16:02:44.218Z,11.70
2019-05-05T16:05:13.762Z,11.53
2019-05-05T16:07:44.042Z,13.98
2019-05-05T16:10:13.764Z,17.70
2019-05-05T16:12:45.001Z,15.13
2019-05-05T16:15:27.300Z,19.57
2019-05-05T16:18:13.714Z,21.05
2019-05-05T16:20:45.807Z,17.17
2019-05-05T16:23:16.183Z,18.05
2019-05-05T16:25:46.581Z,14.90
2019-05-05T16:28:14.839Z,21.48
2019-05-05T16:30:44.531Z,19.15
2019-05-05T16:33:14.061Z,21.07
2019-05-05T16:35:43.743Z,18.52
2019-05-05T16:38:14.674Z,15.85
2019-05-05T16:40:44.422Z,23.30
2019-05-05T16:43:16.259Z,20.10
2019-05-05T16:45:44.455Z,18.50
2019-05-05T16:48:13.107Z,20.27
2019-05-05T16:50:43.908Z,23.27
2019-05-05T16:53:30.969Z,22.52
2019-05-05T16:55:59.407Z,19.40
2019-05-05T16:58:27.884Z,16.30
2019-05-05T17:00:56.619Z,18.17
2019-05-05T17:03:25.373Z,17.25
2019-05-05T17:05:54.633Z,13.13
2019-05-05T17:08:24.510Z,14.65
2019-05-05T17:10:53.130Z,20.00
2019-05-05T17:13:24.155Z,21.62
2019-05-05T17:16:13.456Z,16.93
2019-05-05T17:19:04.309Z,13.03
2019-05-05T17:21:34.163Z,15.83
2019-05-05T17:24:03.033Z,16.23
2019-05-05T17:26:35.320Z,15.53
2019-05-05T17:29:03.745Z,18.00
2019-05-05T17:31:33.980Z,13.85
2019-05-05T17:34:04.197Z,16.17
2019-05-05T17:36:32.739Z,16.77
2019-05-05T17:39:02.080Z,16.87
2019-05-05T17:41:47.183Z,16.55
2019-05-05T17:44:20.263Z,20.43
2019-05-05T17:46:56.350Z,18.87
2019-05-05T17:49:44.680Z,20.00
2019-05-05T17:52:14.763Z,18.98
2019-05-05T17:54:46.818Z,19.52
2019-05-05T17:57:15.246Z,19.42
2019-05-05T17:59:44.080Z,17.80
2019-05-05T18:02:13.041Z,15.35
2019-05-05T18:04:44.284Z,18.90
2019-05-05T18:07:16.847Z,18.45
2019-05-05T18:10:04.131Z,12.78
2019-05-05T18:12:37.020Z,17.73
2019-05-05T18:15:07.332Z,17.32
2019-05-05T18:17:36.739Z,13.65
2019-05-05T18:20:06.615Z,18.12
2019-05-05T18:22:35.059Z,14.20
2019-05-05T18:25:04.968Z,17.37
2019-05-05T18:27:34.448Z,17.20
2019-05-05T18:30:04.050Z,13.48
2019-05-05T18:32:34.648Z,15.43
2019-05-05T18:35:06.419Z,19.02
2019-05-05T18:37:33.975Z,15.90
2019-05-05T18:40:04.117Z,18.42
2019-05-05T18:42:33.996Z,19.60
2019-05-05T18:45:05.324Z,15.95
2019-05-05T18:47:34.149Z,15.60
2019-05-05T18:50:04.114Z,14.70
2019-05-05T18:52:34.593Z,17.35
2019-05-05T18:55:04.380Z,18.65
2019-05-05T18:57:34.154Z,15.10
2019-05-05T19:00:03.889Z,16.23
2019-05-05T19:02:40.349Z,16.85
2019-05-05T19:05:14.472Z,18.65
2019-05-05T19:07:55.133Z,21.37
2019-05-05T19:10:17.699Z,19.27
2019-05-05T19:12:46.161Z,15.35
2019-05-05T19:15:14.799Z,21.17
2019-05-05T19:17:44.453Z,20.17
2019-05-05T19:20:17.635Z,16.10
2019-05-05T19:22:46.051Z,16.05
2019-05-05T19:25:17.384Z,21.62
2019-05-05T19:27:46.638Z,19.15
2019-05-05T19:30:17.243Z,22.05
2019-05-05T19:32:50.768Z,19.37
2019-05-05T19:35:19.180Z,17.73
2019-05-05T19:37:47.607Z,20.35
2019-05-05T19:40:17.375Z,21.75
2019-05-05T19:42:46.306Z,17.20
2019-05-05T19:45:15.705Z,17.90
2019-05-05T19:47:44.187Z,16.20
2019-05-05T19:50:29.968Z,17.50
2019-05-05T19:52:58.395Z,16.32
2019-05-05T19:55:26.823Z,20.17
2019-05-05T19:57:55.245Z,17.85
2019-05-05T20:00:26.317Z,17.42
2019-05-05T20:03:04.433Z,20.02
2019-05-05T20:05:26.304Z,17.95
2019-05-05T20:07:55.446Z,21.62
2019-05-05T20:10:24.020Z,22.00
2019-05-05T20:12:54.631Z,23.62
2019-05-05T20:15:25.617Z,21.05
2019-05-05T20:17:54.080Z,18.62
2019-05-05T20:20:22.559Z,22.85
2019-05-05T20:22:51.328Z,19.60
2019-05-05T20:25:20.952Z,23.55
2019-05-05T20:27:49.387Z,17.62
2019-05-05T20:30:18.339Z,17.82
2019-05-05T20:32:56.174Z,17.92
2019-05-05T20:35:29.907Z,22.02
2019-05-05T20:38:16.271Z,19.15
2019-05-05T20:40:52.148Z,19.12
2019-05-05T20:43:20.859Z,16.20
2019-05-05T20:45:49.307Z,22.15
2019-05-05T20:48:18.703Z,19.73
2019-05-05T20:50:47.364Z,18.82
2019-05-05T20:53:16.703Z,21.05
2019-05-05T20:55:45.435Z,16.37
2019-05-05T20:58:14.232Z,19.50
2019-05-05T21:00:44.258Z,24.63
2019-05-05T21:03:14.236Z,17.67
2019-05-05T21:05:44.043Z,22.67
2019-05-05T21:08:14.128Z,20.97
2019-05-05T21:10:44.241Z,20.97
2019-05-05T21:13:14.864Z,17.70
2019-05-05T21:15:45.187Z,21.20
2019-05-05T21:18:14.455Z,28.00
2019-05-05T21:20:43.292Z,19.40
2019-05-05T21:23:16.383Z,18.82
2019-05-05T21:26:04.570Z,17.30
2019-05-05T21:28:33.763Z,17.27
2019-05-05T21:31:04.650Z,19.77
2019-05-05T21:33:34.654Z,21.68
2019-05-05T21:36:04.394Z,25.50
2019-05-05T21:38:35.419Z,16.62
2019-05-05T21:41:04.641Z,23.25
2019-05-05T21:43:33.130Z,20.43
2019-05-05T21:46:04.289Z,20.52
2019-05-05T21:48:34.100Z,20.35
2019-05-05T21:51:04.781Z,23.35
2019-05-05T21:53:44.919Z,18.92
2019-05-05T21:56:31.603Z,19.27
2019-05-05T21:59:00.041Z,21.55
2019-05-05T22:01:29.269Z,20.35
2019-05-05T22:03:58.044Z,19.70
2019-05-05T22:06:26.475Z,21.50
2019-05-05T22:08:54.918Z,22.02
2019-05-05T22:11:24.281Z,22.58
2019-05-05T22:13:54.186Z,24.87
2019-05-05T22:16:23.687Z,20.82
2019-05-05T22:18:54.022Z,22.65
2019-05-05T22:21:24.349Z,23.47
2019-05-05T22:24:15.952Z,21.27
2019-05-05T22:26:44.937Z,27.25
2019-05-05T22:29:17.057Z,21.05
2019-05-05T22:31:44.483Z,26.17
2019-05-05T22:34:14.562Z,20.30
2019-05-05T22:36:44.903Z,22.32
2019-05-05T22:39:16.487Z,17.60
2019-05-05T22:41:44.678Z,20.48
2019-05-05T22:44:13.907Z,20.68
2019-05-05T22:46:43.031Z,19.80
2019-05-05T22:49:14.757Z,16.50
2019-05-05T22:51:44.765Z,22.45
2019-05-05T22:54:15.133Z,20.12
2019-05-05T22:56:44.838Z,18.10
2019-05-05T22:59:14.163Z,22.60
2019-05-05T23:01:42.597Z,23.80
2019-05-05T23:04:14.346Z,24.55
2019-05-05T23:06:47.019Z,22.52
2019-05-05T23:09:15.450Z,20.90
2019-05-05T23:11:44.160Z,19.82
2019-05-05T23:14:28.656Z,26.37
2019-05-05T23:17:17.093Z,23.55
2019-05-05T23:20:01.697Z,20.30
2019-05-05T23:22:37.859Z,19.75
2019-05-05T23:25:20.979Z,20.92
2019-05-05T23:27:54.559Z,23.38
2019-05-05T23:30:32.279Z,17.37
2019-05-05T23:32:54.806Z,20.68
2019-05-05T23:35:24.017Z,25.48
2019-05-05T23:37:52.662Z,22.55
2019-05-05T23:40:24.665Z,21.40
2019-05-05T23:42:54.194Z,17.10
2019-05-05T23:45:24.842Z,23.07
2019-05-05T23:47:54.500Z,20.37
2019-05-05T23:50:24.470Z,24.55
2019-05-05T23:52:54.510Z,20.62
2019-05-05T23:55:23.924Z,19.85
2019-05-05T23:57:54.638Z,23.02
